Time;durP1;ratioP1;P1;durP2;ratioP2;P2;SDS_P1;SDS_P2;PMS_P1;PMS_P2;Temp;Humidity;BMP_temperature;BMP_pressure;BME280_temperature;BME280_humidity;BME280_pressure;Samples;Min_cycle;Max_cycle;Signal;HPM_P1;HPM_P2
2023/01/21 00:01:15;;;;;;;72.28;30.10;;;;;;;0.44;100.00;102081.03;4929039;29;20034;-70
2023/01/21 00:03:41;;;;;;;65.30;29.13;;;;;;;0.50;100.00;102082.56;4928957;29;20485;-71
2023/01/21 00:06:06;;;;;;;74.50;29.75;;;;;;;0.53;100.00;102080.63;4931900;29;20035;-72
2023/01/21 00:08:32;;;;;;;68.30;29.38;;;;;;;0.55;100.00;102083.22;4928836;29;20082;-70
2023/01/21 00:11:07;;;;;;;72.20;30.02;;;;;;;0.54;100.00;102081.47;4928609;29;20147;-72
2023/01/21 00:13:34;;;;;;;72.18;29.77;;;;;;;0.47;100.00;102075.66;4927628;29;20558;-73
2023/01/21 00:16:00;;;;;;;67.95;30.05;;;;;;;0.54;100.00;102081.47;4925666;29;20046;-71
2023/01/21 00:18:27;;;;;;;81.72;30.50;;;;;;;0.55;100.00;102077.97;4946620;28;20485;-72
2023/01/21 00:20:52;;;;;;;80.35;33.47;;;;;;;0.56;100.00;102072.66;4933186;29;20062;-71
2023/01/21 00:23:18;;;;;;;76.32;31.20;;;;;;;0.57;100.00;102070.88;4928469;29;20028;-71
2023/01/21 00:25:43;;;;;;;73.78;29.02;;;;;;;0.60;100.00;102075.97;4933623;29;20115;-71
2023/01/21 00:28:08;;;;;;;79.70;31.40;;;;;;;0.57;100.00;102076.13;4933889;29;20074;-71
2023/01/21 00:30:35;;;;;;;73.23;28.53;;;;;;;0.50;100.00;102070.25;4931003;29;20036;-71
2023/01/21 00:33:01;;;;;;;72.15;30.52;;;;;;;0.52;100.00;102072.84;4933815;29;20032;-71
2023/01/21 00:35:27;;;;;;;75.15;31.67;;;;;;;0.49;100.00;102086.09;4949629;28;20095;-71
2023/01/21 00:37:52;;;;;;;73.68;30.73;;;;;;;0.49;100.00;102080.84;4933745;29;20453;-70
2023/01/21 00:40:18;;;;;;;80.53;33.47;;;;;;;0.52;100.00;102083.34;4934803;29;20066;-71
2023/01/21 00:42:43;;;;;;;77.15;30.10;;;;;;;0.64;100.00;102095.97;4933964;29;20138;-71
2023/01/21 00:45:09;;;;;;;84.50;34.43;;;;;;;0.60;100.00;102086.50;4934956;29;20028;-71
2023/01/21 00:47:34;;;;;;;86.10;31.77;;;;;;;0.53;100.00;102092.94;4935171;29;20779;-71
2023/01/21 00:49:59;;;;;;;80.00;33.53;;;;;;;0.51;100.00;102086.88;4933676;29;20107;-71
2023/01/21 00:52:25;;;;;;;71.53;30.63;;;;;;;0.56;100.00;102104.19;4917512;29;20062;-70
2023/01/21 00:54:50;;;;;;;73.80;30.27;;;;;;;0.58;100.00;102104.09;4934665;29;20043;-72
2023/01/21 00:57:15;;;;;;;86.85;34.55;;;;;;;0.55;100.00;102105.09;4934961;29;20919;-71
2023/01/21 00:59:41;;;;;;;80.72;32.65;;;;;;;0.58;100.00;102109.34;4933286;29;20075;-71
2023/01/21 01:02:07;;;;;;;81.10;32.83;;;;;;;0.55;100.00;102114.75;4934650;29;20757;-72
2023/01/21 01:04:32;;;;;;;;;;;;;;;0.52;100.00;102122.78;4933958;29;20036;-70
2023/01/21 01:06:58;;;;;;;77.00;32.20;;;;;;;0.54;100.00;102119.16;4934597;29;19915;-70
2023/01/21 01:09:23;;;;;;;79.65;31.13;;;;;;;0.53;100.00;102116.59;4933243;29;20023;-71
2023/01/21 01:11:49;;;;;;;87.05;32.55;;;;;;;0.54;100.00;102128.78;4948261;28;20103;-70
2023/01/21 01:14:14;;;;;;;77.95;33.15;;;;;;;0.52;100.00;102130.66;4932245;29;20530;-70
2023/01/21 01:16:39;;;;;;;73.50;29.27;;;;;;;0.52;100.00;102134.13;4932305;29;20537;-71
2023/01/21 01:19:05;;;;;;;85.10;33.50;;;;;;;0.50;100.00;102127.22;4933310;29;20295;-71
2023/01/21 01:21:30;;;;;;;78.87;32.73;;;;;;;0.49;100.00;102136.91;4945858;29;20299;-71
2023/01/21 01:23:59;;;;;;;73.28;31.92;;;;;;;0.44;100.00;102138.84;4934490;29;20275;-71
2023/01/21 01:26:25;;;;;;;78.97;32.95;;;;;;;0.47;100.00;102143.09;4949218;28;20630;-71
2023/01/21 01:28:51;;;;;;;73.05;32.63;;;;;;;0.45;100.00;102139.72;4933460;29;20169;-72
2023/01/21 01:31:18;;;;;;;105.80;32.88;;;;;;;0.45;100.00;102139.72;4933389;29;20686;-72
2023/01/21 01:33:43;;;;;;;77.38;30.02;;;;;;;0.38;100.00;102145.22;4928555;29;20048;-71
2023/01/21 01:36:15;;;;;;;78.40;31.98;;;;;;;0.48;100.00;102147.47;4932527;28;20083;-71
2023/01/21 01:38:41;;;;;;;82.15;32.58;;;;;;;0.40;100.00;102147.78;4931490;29;20095;-71
2023/01/21 01:41:06;;;;;;;78.45;30.05;;;;;;;0.30;100.00;102156.94;4931502;29;20579;-71
2023/01/21 01:43:53;;;;;;;89.43;31.52;;;;;;;0.27;100.00;102160.53;4946411;28;20063;-71
2023/01/21 01:46:20;;;;;;;80.38;31.92;;;;;;;0.18;100.00;102155.66;4934930;29;20046;-71
2023/01/21 01:48:49;;;;;;;76.00;28.85;;;;;;;0.15;100.00;102167.13;4948962;28;20558;-71
2023/01/21 01:51:18;;;;;;;71.22;30.27;;;;;;;0.10;100.00;102166.47;4929746;29;20389;-71
2023/01/21 01:53:45;;;;;;;80.18;30.67;;;;;;;0.06;100.00;102164.88;4944050;29;20063;-71
2023/01/21 01:56:11;;;;;;;87.30;31.70;;;;;;;-0.08;100.00;102165.41;4939583;29;20040;-71
2023/01/21 01:58:37;;;;;;;102.18;33.42;;;;;;;-0.11;100.00;102156.81;4943925;29;20035;-71
2023/01/21 02:01:03;;;;;;;94.97;37.13;;;;;;;-0.09;100.00;102163.72;4933198;28;20490;-71
2023/01/21 02:03:43;;;;;;;83.13;33.10;;;;;;;-0.04;100.00;102174.03;4931002;29;20046;-73
2023/01/21 02:06:09;;;;;;;80.63;30.77;;;;;;;-0.10;100.00;102175.09;4930918;29;20090;-73
2023/01/21 02:08:35;;;;;;;87.00;35.15;;;;;;;-0.09;100.00;102181.25;4931304;29;20024;-71
2023/01/21 02:11:01;;;;;;;92.97;33.45;;;;;;;-0.17;100.00;102184.13;4948522;29;20031;-71
2023/01/21 02:13:29;;;;;;;76.82;30.65;;;;;;;-0.15;100.00;102182.31;4948676;29;20043;-73
2023/01/21 02:16:24;;;;;;;76.53;30.92;;;;;;;-0.12;100.00;102181.34;4927575;29;20075;-71
2023/01/21 02:18:59;;;;;;;84.85;30.60;;;;;;;-0.10;100.00;102190.84;4948259;29;20035;-71
2023/01/21 02:21:53;;;;;;;101.03;35.30;;;;;;;-0.15;100.00;102192.81;4949668;29;20035;-73
2023/01/21 02:24:33;;;;;;;84.18;31.48;;;;;;;-0.19;100.00;102191.22;4945464;29;20031;-73
2023/01/21 02:27:33;;;;;;;80.75;30.30;;;;;;;-0.24;100.00;102201.03;4922898;29;20041;-73
2023/01/21 02:30:17;;;;;;;85.57;30.40;;;;;;;-0.34;100.00;102192.66;4942487;29;20121;-73
2023/01/21 02:33:24;;;;;;;73.88;30.67;;;;;;;-0.40;100.00;102192.84;4928437;29;20465;-73
2023/01/21 02:36:21;;;;;;;71.38;27.98;;;;;;;-0.46;100.00;102190.47;4908089;29;20048;-73
2023/01/21 02:39:11;;;;;;;79.35;30.83;;;;;;;-0.58;100.00;102185.69;4936977;29;20114;-71
2023/01/21 02:41:55;;;;;;;76.25;28.20;;;;;;;-0.68;100.00;102193.88;4936961;29;20043;-73
2023/01/21 02:44:34;;;;;;;69.63;28.25;;;;;;;-0.69;100.00;102197.41;4927049;29;20107;-73
2023/01/21 02:47:24;;;;;;;69.60;24.48;;;;;;;-0.70;100.00;102194.84;4925191;29;20046;-73
2023/01/21 02:50:27;;;;;;;74.65;29.15;;;;;;;-0.71;100.00;102201.00;4927855;29;20039;-71
2023/01/21 02:53:00;;;;;;;71.38;27.77;;;;;;;-0.67;100.00;102199.97;4908749;29;20078;-71
2023/01/21 02:55:34;;;;;;;75.90;27.88;;;;;;;-0.67;100.00;102206.06;4926337;29;20681;-74
2023/01/21 02:58:11;;;;;;;96.07;32.63;;;;;;;-0.59;100.00;102207.56;4930178;29;20397;-71
2023/01/21 03:01:10;;;;;;;79.32;29.65;;;;;;;-0.55;100.00;102217.91;4933661;29;20047;-74
2023/01/21 03:03:51;;;;;;;81.22;29.95;;;;;;;-0.47;100.00;102229.00;4931155;29;20028;-71
2023/01/21 03:06:51;;;;;;;79.50;30.55;;;;;;;-0.37;100.00;102240.00;4941570;29;20551;-71
2023/01/21 03:09:28;;;;;;;72.38;28.92;;;;;;;-0.33;100.00;102241.63;4938862;29;20472;-73
2023/01/21 03:12:31;;;;;;;82.72;31.38;;;;;;;-0.32;100.00;102239.84;4948650;29;20050;-70
2023/01/21 03:18:15;;;;;;;77.28;29.67;;;;;;;-0.17;100.00;102262.03;4932448;29;20070;-71
2023/01/21 03:20:50;;;;;;;81.35;30.83;;;;;;;-0.15;100.00;102263.69;4925473;29;20103;-71
2023/01/21 03:23:32;;;;;;;81.00;30.98;;;;;;;-0.15;100.00;102263.69;4928339;29;20036;-70
2023/01/21 03:25:59;;;;;;;71.28;30.65;;;;;;;-0.09;100.00;102267.88;4929108;29;20046;-73
2023/01/21 03:28:28;;;;;;;77.50;29.95;;;;;;;-0.08;100.00;102273.06;4928553;29;20401;-71
2023/01/21 03:30:58;;;;;;;94.88;33.72;;;;;;;-0.13;100.00;102264.50;4959698;28;20036;-71
2023/01/21 03:33:26;;;;;;;83.07;29.27;;;;;;;-0.12;100.00;102275.84;4937611;29;20072;-71
2023/01/21 03:35:54;;;;;;;78.53;27.77;;;;;;;-0.13;100.00;102269.75;4940307;29;20054;-71
2023/01/21 03:38:30;;;;;;;74.97;30.77;;;;;;;-0.15;100.00;102276.81;4929374;29;20035;-71
2023/01/21 03:41:05;;;;;;;84.15;30.52;;;;;;;-0.19;100.00;102272.59;4945213;28;20039;-72
2023/01/21 03:43:30;;;;;;;79.50;29.65;;;;;;;-0.27;100.00;102274.66;4917551;29;20028;-71
2023/01/21 03:46:28;;;;;;;79.82;29.45;;;;;;;-0.33;100.00;102283.59;4929559;29;20452;-74
2023/01/21 03:49:05;;;;;;;68.13;25.60;;;;;;;-0.34;100.00;102286.28;4916189;29;20043;-73
2023/01/21 03:51:38;;;;;;;71.38;27.60;;;;;;;-0.35;100.00;102288.06;4925644;29;20031;-72
2023/01/21 03:54:03;;;;;;;69.22;27.95;;;;;;;-0.39;100.00;102282.97;4927960;29;20515;-71
2023/01/21 03:56:28;;;;;;;63.67;26.42;;;;;;;-0.44;100.00;102276.09;4933904;29;20183;-74
2023/01/21 03:58:54;;;;;;;78.85;27.80;;;;;;;-0.51;100.00;102290.34;4933481;28;20027;-73
2023/01/21 04:01:20;;;;;;;77.50;27.02;;;;;;;-0.58;100.00;102288.84;4921791;29;20066;-73
2023/01/21 04:03:45;;;;;;;78.65;28.60;;;;;;;-0.65;100.00;102287.34;4927912;29;20051;-73
2023/01/21 04:06:20;;;;;;;71.03;25.57;;;;;;;-0.66;100.00;102290.84;4932433;29;20062;-73
2023/01/21 04:08:45;;;;;;;70.68;26.30;;;;;;;-0.64;100.00;102299.53;4928717;29;20448;-73
2023/01/21 04:11:11;;;;;;;72.32;28.40;;;;;;;-0.66;100.00;102301.34;4928820;29;20063;-73
2023/01/21 04:13:36;;;;;;;69.60;28.35;;;;;;;-0.67;100.00;102300.50;4940331;28;20131;-74
2023/01/21 04:16:02;;;;;;;72.00;27.45;;;;;;;-0.65;100.00;102305.72;4930899;29;20032;-73
2023/01/21 04:18:27;;;;;;;64.25;24.73;;;;;;;-0.64;100.00;102305.63;4928954;29;22039;-73
2023/01/21 04:20:53;;;;;;;75.05;30.23;;;;;;;-0.64;100.00;102307.41;4928219;29;20036;-72
2023/01/21 04:23:18;;;;;;;62.20;26.00;;;;;;;-0.65;100.00;102318.81;4928772;29;20374;-74
2023/01/21 04:25:46;;;;;;;56.15;25.13;;;;;;;-0.69;100.00;102318.06;4928587;29;20307;-73
2023/01/21 04:28:12;;;;;;;67.05;24.33;;;;;;;-0.70;100.00;102318.13;4927569;29;20039;-73
2023/01/21 04:30:37;;;;;;;57.17;24.83;;;;;;;-0.70;100.00;102311.09;4937191;29;20085;-73
2023/01/21 04:33:02;;;;;;;60.63;24.15;;;;;;;-0.70;100.00;102315.50;4946978;29;20031;-73
2023/01/21 04:35:28;;;;;;;92.70;28.93;;;;;;;-0.75;100.00;102307.78;4940301;28;20066;-73
2023/01/21 04:37:53;;;;;;;60.10;24.60;;;;;;;-0.73;100.00;102311.19;4928362;29;20290;-71
2023/01/21 04:40:19;;;;;;;76.10;26.70;;;;;;;-0.73;100.00;102318.22;4925295;29;20028;-71
2023/01/21 04:42:44;;;;;;;68.00;25.60;;;;;;;-0.73;100.00;102312.97;4929012;29;20040;-72
2023/01/21 04:45:10;;;;;;;73.28;25.90;;;;;;;-0.78;100.00;102322.75;4928291;29;21021;-70
2023/01/21 04:47:39;;;;;;;61.58;25.00;;;;;;;-0.81;100.00;102328.97;4926507;29;20198;-71
2023/01/21 04:50:05;;;;;;;58.95;24.08;;;;;;;-0.86;100.00;102334.34;4946019;29;20102;-71
2023/01/21 04:52:30;;;;;;;81.45;28.35;;;;;;;-0.86;100.00;102336.97;4930579;29;20667;-72
2023/01/21 04:54:56;;;;;;;54.42;21.45;;;;;;;-0.87;100.00;102339.63;4930621;29;20024;-71
2023/01/21 04:57:21;;;;;;;63.22;22.35;;;;;;;-0.88;100.00;102344.03;4930975;29;20091;-71
2023/01/21 04:59:46;;;;;;;69.57;23.45;;;;;;;-0.91;100.00;102343.28;4925482;29;20063;-71
2023/01/21 05:02:12;;;;;;;72.15;24.02;;;;;;;-0.95;100.00;102347.75;4926963;29;20035;-71
2023/01/21 05:04:37;;;;;;;72.90;25.95;;;;;;;-0.90;100.00;102351.09;4942969;28;20044;-71
2023/01/21 05:07:02;;;;;;;67.15;26.60;;;;;;;-0.85;100.00;102348.31;4931285;29;20051;-71
2023/01/21 05:09:28;;;;;;;56.42;21.52;;;;;;;-0.85;100.00;102346.53;4944087;29;20038;-71
2023/01/21 05:11:53;;;;;;;54.95;23.30;;;;;;;-0.83;100.00;102358.78;4943455;28;20044;-71
2023/01/21 05:14:19;;;;;;;57.95;23.15;;;;;;;-0.80;100.00;102361.28;4927902;29;20059;-71
2023/01/21 05:16:44;;;;;;;55.90;22.75;;;;;;;-0.81;100.00;102359.59;4944694;29;20300;-71
2023/01/21 05:19:09;;;;;;;63.20;23.05;;;;;;;-0.86;100.00;102363.19;4947434;23;20023;-77
2023/01/21 05:21:35;;;;;;;60.20;22.88;;;;;;;-0.82;100.00;102368.34;4953251;28;20290;-77
2023/01/21 05:24:00;;;;;;;62.13;23.80;;;;;;;-0.78;100.00;102364.72;4953772;28;20094;-76
2023/01/21 05:26:26;;;;;;;55.95;22.77;;;;;;;-0.80;100.00;102369.16;4962921;28;20403;-77
2023/01/21 05:28:52;;;;;;;58.35;22.23;;;;;;;-0.80;100.00;102367.38;4976475;28;20027;-77
2023/01/21 05:31:17;;;;;;;58.15;22.13;;;;;;;-0.78;100.00;102376.06;4960626;28;20122;-77
2023/01/21 05:33:44;;;;;;;60.78;22.83;;;;;;;-0.74;100.00;102376.84;4950330;29;20074;-76
2023/01/21 05:36:10;;;;;;;50.20;22.10;;;;;;;-0.72;100.00;102385.50;4950155;29;20129;-77
2023/01/21 05:38:35;;;;;;;56.22;22.15;;;;;;;-0.73;100.00;102391.66;4950303;28;20138;-76
2023/01/21 05:41:02;;;;;;;58.83;23.90;;;;;;;-0.73;100.00;102395.13;4950106;29;20043;-76
2023/01/21 05:43:28;;;;;;;58.63;21.17;;;;;;;-0.72;100.00;102391.59;4946708;29;20098;-76
2023/01/21 05:45:53;;;;;;;66.55;24.50;;;;;;;-0.65;100.00;102392.28;4951316;29;20027;-76
2023/01/21 05:48:19;;;;;;;75.55;25.80;;;;;;;-0.71;100.00;102393.31;4935261;28;20381;-76
2023/01/21 05:50:44;;;;;;;55.30;20.77;;;;;;;-0.78;100.00;102406.69;4942990;29;20035;-77
2023/01/21 05:53:10;;;;;;;54.17;22.27;;;;;;;-0.76;100.00;102402.25;4950015;28;20818;-75
2023/01/21 05:55:36;;;;;;;67.35;23.55;;;;;;;-0.83;100.00;102393.72;4949803;28;20118;-76
2023/01/21 05:58:01;;;;;;;54.15;20.20;;;;;;;-0.76;100.00;102413.59;4954714;28;20426;-76
2023/01/21 06:00:27;;;;;;;50.60;21.67;;;;;;;-0.78;100.00;102415.41;4952041;28;20042;-76
2023/01/21 06:02:52;;;;;;;55.72;20.90;;;;;;;-0.77;100.00;102418.88;4954996;28;20035;-77
2023/01/21 06:05:17;;;;;;;55.72;22.75;;;;;;;-0.75;100.00;102420.56;4947938;28;20046;-76
2023/01/21 06:07:43;;;;;;;60.90;20.85;;;;;;;-0.69;100.00;102424.75;4951279;28;20027;-76
2023/01/21 06:10:09;;;;;;;53.28;21.58;;;;;;;-0.69;100.00;102428.22;4950102;29;20023;-76
2023/01/21 06:12:34;;;;;;;67.10;23.23;;;;;;;-0.69;100.00;102427.38;4933669;29;20694;-76
2023/01/21 06:14:59;;;;;;;49.35;20.02;;;;;;;-0.74;100.00;102429.28;4949767;29;20418;-77
2023/01/21 06:17:25;;;;;;;57.05;21.42;;;;;;;-0.79;100.00;102441.69;4933595;29;20097;-76
2023/01/21 06:19:51;;;;;;;56.65;20.73;;;;;;;-0.76;100.00;102438.97;4949346;28;20142;-76
2023/01/21 06:22:16;;;;;;;55.08;22.77;;;;;;;-0.80;100.00;102442.59;4951223;28;20038;-76
2023/01/21 06:24:42;;;;;;;55.65;22.13;;;;;;;-0.75;100.00;102453.78;4960720;28;20093;-76
2023/01/21 06:27:07;;;;;;;59.45;21.88;;;;;;;-0.81;100.00;102433.00;4950493;28;20035;-76
2023/01/21 06:29:32;;;;;;;60.75;23.58;;;;;;;-0.81;100.00;102439.09;4952125;28;20033;-76
2023/01/21 06:31:58;;;;;;;53.08;23.67;;;;;;;-0.74;100.00;102452.91;4932920;29;20412;-76
2023/01/21 06:34:23;;;;;;;63.63;24.33;;;;;;;-0.72;100.00;102453.72;4949102;29;20035;-76
2023/01/21 06:36:49;;;;;;;63.08;23.17;;;;;;;-0.77;100.00;102455.59;4949062;29;20039;-76
2023/01/21 06:39:14;;;;;;;58.58;22.45;;;;;;;-0.73;100.00;102458.06;4951252;28;20396;-76
2023/01/21 06:41:39;;;;;;;53.92;21.15;;;;;;;-0.77;100.00;102458.22;4943836;28;20109;-77
2023/01/21 06:44:05;;;;;;;80.70;29.10;;;;;;;-0.89;100.00;102457.72;4949117;29;20035;-77
2023/01/21 06:46:30;;;;;;;63.10;25.05;;;;;;;-0.83;100.00;102466.28;4950196;28;20031;-77
2023/01/21 06:48:56;;;;;;;61.05;23.25;;;;;;;-0.93;100.00;102463.94;4932514;29;20039;-76
2023/01/21 06:51:21;;;;;;;54.97;23.38;;;;;;;-0.93;100.00;102479.69;4949495;28;20043;-75
2023/01/21 06:53:47;;;;;;;52.30;20.75;;;;;;;-0.88;100.00;102480.41;4949826;28;20031;-76
2023/01/21 06:56:12;;;;;;;51.80;21.23;;;;;;;-0.96;100.00;102477.16;4948511;29;20038;-76
2023/01/21 06:58:37;;;;;;;50.08;20.42;;;;;;;-1.04;100.00;102489.63;4948616;28;20090;-76
2023/01/21 07:01:03;;;;;;;60.00;21.05;;;;;;;-1.09;100.00;102491.53;4948437;29;20113;-76
2023/01/21 07:03:28;;;;;;;45.30;18.13;;;;;;;-1.09;100.00;102505.47;4932591;29;20039;-76
2023/01/21 07:05:54;;;;;;;53.67;19.95;;;;;;;-1.08;100.00;102507.22;4948101;29;20143;-76
2023/01/21 07:08:19;;;;;;;48.50;18.58;;;;;;;-1.08;100.00;102519.44;4948596;28;20436;-75
2023/01/21 07:10:48;;;;;;;58.00;20.50;;;;;;;-1.06;100.00;102520.25;4947758;28;20035;-76
2023/01/21 07:13:13;;;;;;;62.28;21.35;;;;;;;-1.09;100.00;102523.84;4964106;28;20031;-76
2023/01/21 07:15:38;;;;;;;53.80;20.63;;;;;;;-1.13;100.00;102521.34;4948437;29;20062;-76
2023/01/21 07:18:04;;;;;;;52.45;20.35;;;;;;;-1.11;100.00;102522.16;4949006;28;20027;-76
2023/01/21 07:20:29;;;;;;;56.35;21.05;;;;;;;-1.13;100.00;102526.59;4947808;28;20031;-76
2023/01/21 07:22:54;;;;;;;53.65;19.85;;;;;;;-1.08;100.00;102538.69;4931685;29;20039;-76
2023/01/21 07:25:20;;;;;;;58.05;21.45;;;;;;;-1.04;100.00;102542.06;4947570;29;20031;-76
2023/01/21 07:27:45;;;;;;;58.13;21.17;;;;;;;-1.03;100.00;102542.91;4931851;29;20047;-76
2023/01/21 07:30:17;;;;;;;61.97;24.10;;;;;;;-1.02;100.00;102550.75;4947531;29;20106;-76
2023/01/21 07:32:44;;;;;;;59.90;23.95;;;;;;;-1.02;100.00;102560.38;4931050;28;20608;-76
2023/01/21 07:35:09;;;;;;;73.90;23.85;;;;;;;-1.03;100.00;102554.28;4950748;28;20059;-76
2023/01/21 07:37:34;;;;;;;60.88;24.67;;;;;;;-1.04;100.00;102549.06;4934611;29;20064;-77
2023/01/21 07:40:00;;;;;;;65.80;23.73;;;;;;;-0.99;100.00;102555.88;4948775;29;20102;-75
2023/01/21 07:42:25;;;;;;;64.82;24.00;;;;;;;-1.08;100.00;102541.31;4931511;29;20098;-76
2023/01/21 07:44:51;;;;;;;61.08;21.85;;;;;;;-1.12;100.00;102550.16;4951312;28;20039;-75
2023/01/21 07:47:16;;;;;;;67.25;23.70;;;;;;;-1.05;100.00;102553.47;4933346;28;20579;-76
2023/01/21 07:49:42;;;;;;;75.75;26.05;;;;;;;-1.06;100.00;102560.44;4947189;28;20098;-76
2023/01/21 07:52:07;;;;;;;78.25;28.67;;;;;;;-1.00;100.00;102564.66;4947085;29;20042;-76
2023/01/21 07:54:32;;;;;;;76.93;25.98;;;;;;;-0.99;100.00;102558.50;4947247;29;20023;-76
2023/01/21 07:56:58;;;;;;;58.38;23.65;;;;;;;-0.89;100.00;102557.34;4947668;28;20047;-76
2023/01/21 07:59:23;;;;;;;69.40;24.98;;;;;;;-0.85;100.00;102563.34;4943674;28;20037;-76
2023/01/21 08:01:48;;;;;;;59.92;23.58;;;;;;;-0.74;100.00;102565.69;4958707;28;20122;-76
2023/01/21 08:04:14;;;;;;;74.35;25.95;;;;;;;-0.59;100.00;102575.69;4954568;28;20071;-76
2023/01/21 08:06:42;;;;;;;127.03;43.30;;;;;;;-0.52;100.00;102576.38;4959639;28;20106;-76
2023/01/21 08:09:09;;;;;;;67.47;27.85;;;;;;;-0.31;100.00;102580.13;4948372;28;20038;-76
2023/01/21 08:11:34;;;;;;;61.38;25.98;;;;;;;-0.13;100.00;102587.44;4943275;28;20472;-76
2023/01/21 08:13:59;;;;;;;56.72;25.40;;;;;;;0.12;100.00;102584.03;4943905;28;20094;-76
2023/01/21 08:16:25;;;;;;;64.07;28.58;;;;;;;0.17;100.00;102588.22;4956959;28;20563;-76
2023/01/21 08:18:50;;;;;;;89.20;27.25;;;;;;;0.03;100.00;102582.56;4951005;28;20082;-77
2023/01/21 08:21:16;;;;;;;57.20;24.25;;;;;;;0.10;100.00;102588.47;4953258;28;20138;-76
2023/01/21 08:23:41;;;;;;;57.25;23.92;;;;;;;0.30;100.00;102588.66;4958271;28;20035;-76
2023/01/21 08:26:07;;;;;;;48.95;20.70;;;;;;;0.71;100.00;102604.81;4957691;28;20054;-77
2023/01/21 08:28:33;;;;;;;51.05;22.58;;;;;;;1.09;100.00;102605.19;4959509;28;20035;-76
2023/01/21 08:31:06;;;;;;;53.38;21.75;;;;;;;1.66;100.00;102622.38;4947275;28;20023;-77
2023/01/21 08:33:32;;;;;;;49.30;21.48;;;;;;;1.98;100.00;102611.50;4937537;29;20039;-76
2023/01/21 08:35:59;;;;;;;45.10;19.75;;;;;;;2.36;100.00;102617.81;4954496;28;20061;-76
2023/01/21 08:38:25;;;;;;;40.92;18.85;;;;;;;2.89;100.00;102627.03;4954241;28;20037;-76
2023/01/21 08:40:50;;;;;;;42.80;19.60;;;;;;;3.19;100.00;102623.97;4951258;28;20039;-77
2023/01/21 08:43:15;;;;;;;37.97;19.33;;;;;;;3.63;100.00;102608.75;4953301;28;20270;-76
2023/01/21 08:45:41;;;;;;;38.03;18.33;;;;;;;3.76;100.00;102594.00;4956235;28;20042;-76
2023/01/21 08:48:06;;;;;;;37.60;18.57;;;;;;;4.47;100.00;102593.19;4963237;28;20059;-77
2023/01/21 08:50:31;;;;;;;41.92;21.67;;;;;;;5.03;100.00;102578.81;4964422;28;20031;-76
2023/01/21 08:52:57;;;;;;;39.93;19.03;;;;;;;4.53;100.00;102534.69;4952118;29;20035;-77
2023/01/21 08:55:26;;;;;;;37.63;19.92;;;;;;;4.32;100.00;102517.28;4952533;29;20477;-77
2023/01/21 08:57:53;;;;;;;38.45;20.27;;;;;;;4.02;100.00;102494.94;4952445;29;20126;-77
2023/01/21 09:00:20;;;;;;;40.33;18.67;;;;;;;3.42;100.00;102460.09;4952801;28;20118;-77
2023/01/21 09:02:45;;;;;;;40.97;19.13;;;;;;;2.94;100.00;102435.94;4963314;28;20544;-77
2023/01/21 09:05:10;;;;;;;47.28;19.52;;;;;;;2.56;100.00;102428.94;4938044;28;20039;-77
2023/01/21 09:07:36;;;;;;;38.73;18.27;;;;;;;2.34;100.00;102424.59;4955227;28;20031;-77
2023/01/21 09:10:05;;;;;;;44.77;20.77;;;;;;;2.09;100.00;102419.59;4954541;28;20123;-77
2023/01/21 09:12:31;;;;;;;43.95;20.83;;;;;;;1.97;100.00;102431.50;4961439;28;20290;-77
2023/01/21 09:14:56;;;;;;;42.13;20.13;;;;;;;1.79;100.00;102434.91;4952159;28;20042;-77
2023/01/21 09:17:21;;;;;;;51.20;21.35;;;;;;;1.74;100.00;102444.78;4958960;28;20101;-77
2023/01/21 09:19:48;;;;;;;42.38;20.65;;;;;;;1.76;100.00;102459.59;4954631;28;20031;-77
2023/01/21 09:22:13;;;;;;;;;;;;;;;1.64;100.00;102476.75;4949430;28;20385;-77
2023/01/21 09:24:39;;;;;;;46.25;20.20;;;;;;;1.69;100.00;102498.50;4950522;28;19937;-77
2023/01/21 09:27:08;;;;;;;45.55;21.05;;;;;;;1.69;100.00;102514.28;4961803;28;20035;-77
2023/01/21 09:29:34;;;;;;;49.88;20.83;;;;;;;1.64;100.00;102524.16;4962039;28;20027;-77
2023/01/21 09:32:00;;;;;;;54.15;22.20;;;;;;;1.67;100.00;102545.09;4951677;28;20037;-76
2023/01/21 09:34:26;;;;;;;45.33;21.30;;;;;;;1.71;100.00;102558.13;4958177;28;20034;-76
2023/01/21 09:36:51;;;;;;;50.25;23.25;;;;;;;1.98;100.00;102585.16;4958034;28;20510;-76
2023/01/21 09:39:17;;;;;;;45.43;21.23;;;;;;;3.34;100.00;102645.25;4950333;29;20039;-77
2023/01/21 09:41:48;;;;;;;43.10;21.27;;;;;;;4.64;100.00;102651.41;4959080;28;20281;-77
2023/01/21 09:44:21;;;;;;;40.47;19.38;;;;;;;4.58;100.00;102580.25;4952020;28;20054;-76
2023/01/21 09:47:04;;;;;;;48.47;21.42;;;;;;;4.06;100.00;102503.59;4959833;28;20495;-76
2023/01/21 09:49:38;;;;;;;43.47;20.13;;;;;;;3.16;100.00;102443.72;4933231;29;20094;-77
2023/01/21 09:52:38;;;;;;;44.88;22.08;;;;;;;2.97;100.00;102461.31;4956267;28;20031;-77
2023/01/21 09:55:05;;;;;;;45.00;22.65;;;;;;;2.88;100.00;102467.00;4933510;29;20050;-77
2023/01/21 09:57:41;;;;;;;46.17;22.30;;;;;;;2.46;100.00;102454.88;4948935;28;20027;-77
2023/01/21 10:00:25;;;;;;;44.47;19.13;;;;;;;2.50;100.00;102495.97;4931214;29;20089;-76
2023/01/21 10:03:09;;;;;;;55.88;23.75;;;;;;;2.36;100.00;102506.25;4950192;28;20142;-76
2023/01/21 10:06:00;;;;;;;44.78;21.77;;;;;;;2.36;100.00;102535.25;4946487;28;20523;-77
2023/01/21 10:08:31;;;;;;;53.38;25.00;;;;;;;2.32;100.00;102553.84;4948641;28;20035;-77
2023/01/21 10:11:19;;;;;;;47.88;21.50;;;;;;;2.27;100.00;102560.22;4932557;28;20039;-76
2023/01/21 10:14:03;;;;;;;46.67;21.70;;;;;;;2.30;100.00;102583.84;4943867;28;20077;-77
2023/01/21 10:16:48;;;;;;;48.63;21.02;;;;;;;2.26;100.00;102592.78;4948385;29;20039;-77
2023/01/21 10:19:21;;;;;;;47.95;20.95;;;;;;;2.19;100.00;102607.13;4935798;28;20504;-77
2023/01/21 10:21:54;;;;;;;49.00;20.85;;;;;;;2.25;100.00;102625.34;4955975;28;20050;-77
2023/01/21 10:24:24;;;;;;;49.45;21.83;;;;;;;2.29;100.00;102632.19;4950352;28;20031;-76
2023/01/21 10:26:52;;;;;;;44.50;18.52;;;;;;;2.22;100.00;102636.00;4949119;28;20043;-77
2023/01/21 10:29:22;;;;;;;50.90;20.95;;;;;;;2.32;100.00;102653.16;4961709;28;20428;-77
2023/01/21 10:31:54;;;;;;;42.05;19.17;;;;;;;2.30;100.00;102649.72;4960068;28;20476;-77
2023/01/21 10:34:19;;;;;;;42.03;19.88;;;;;;;2.31;100.00;102657.56;4936657;28;20030;-77
2023/01/21 10:37:06;;;;;;;39.10;17.40;;;;;;;2.30;100.00;102649.72;4951182;28;20034;-77
2023/01/21 10:39:39;;;;;;;44.47;21.15;;;;;;;2.29;100.00;102654.16;4932578;29;20038;-76
2023/01/21 10:42:14;;;;;;;42.28;19.85;;;;;;;2.29;100.00;102662.06;4950370;29;20518;-78
2023/01/21 10:45:23;;;;;;;43.33;20.25;;;;;;;2.33;100.00;102660.16;4935163;28;20476;-77
2023/01/21 10:48:12;;;;;;;41.65;20.50;;;;;;;2.42;100.00;102667.69;4903239;29;20409;-77
2023/01/21 10:50:59;;;;;;;44.05;19.55;;;;;;;2.49;100.00;102671.78;4946785;29;20058;-76
2023/01/21 10:53:42;;;;;;;45.88;20.95;;;;;;;2.47;100.00;102654.31;4950297;29;20039;-76
2023/01/21 10:56:21;;;;;;;42.03;18.55;;;;;;;2.62;100.00;102660.72;4943892;28;20074;-76
2023/01/21 10:58:53;;;;;;;48.20;21.30;;;;;;;2.63;100.00;102641.34;4943540;28;20377;-76
2023/01/21 11:01:29;;;;;;;46.78;22.20;;;;;;;2.68;100.00;102637.59;4948060;28;20119;-77
2023/01/21 11:04:03;;;;;;;40.95;19.10;;;;;;;3.33;100.00;102666.47;4948551;29;20046;-77
2023/01/21 11:06:31;;;;;;;37.10;17.38;;;;;;;4.06;100.00;102675.41;4944882;29;20041;-77
2023/01/21 11:09:03;;;;;;;28.98;15.05;;;;;;;5.02;100.00;102656.50;4969883;28;20071;-77
2023/01/21 11:11:31;;;;;;;36.22;16.20;;;;;;;5.83;100.00;102589.47;4945928;28;20037;-77
2023/01/21 11:13:57;;;;;;;31.85;15.30;;;;;;;5.66;100.00;102439.38;4946245;29;20035;-77
2023/01/21 11:16:45;;;;;;;34.13;15.57;;;;;;;6.39;100.00;102372.28;4935471;28;20038;-77
2023/01/21 11:19:14;;;;;;;26.42;13.40;;;;;;;7.05;100.00;102272.50;4932433;29;20031;-76